createdAt,value
2018-02-06T00:00:00.823Z,69.67
2018-02-06T00:01:07.583Z,69.66
2018-02-06T00:02:14.312Z,69.70
2018-02-06T00:03:21.115Z,69.68
2018-02-06T00:04:27.829Z,69.69
2018-02-06T00:05:34.556Z,69.68
2018-02-06T00:06:41.271Z,69.63
2018-02-06T00:07:48.024Z,69.67
2018-02-06T00:08:54.847Z,69.69
2018-02-06T00:10:01.617Z,69.72
2018-02-06T00:11:08.378Z,69.71
2018-02-06T00:12:15.133Z,69.69
2018-02-06T00:13:22.008Z,69.75
2018-02-06T00:14:28.749Z,69.76
2018-02-06T00:15:35.476Z,69.77
2018-02-06T00:16:42.220Z,69.75
2018-02-06T00:17:48.949Z,69.68
2018-02-06T00:18:55.768Z,69.64
2018-02-06T00:20:02.506Z,69.66
2018-02-06T00:21:09.224Z,69.66
2018-02-06T00:22:16.000Z,69.68
2018-02-06T00:23:22.723Z,69.64
2018-02-06T00:24:29.566Z,69.64
2018-02-06T00:25:36.309Z,69.71
2018-02-06T00:26:43.049Z,69.67
2018-02-06T00:27:49.787Z,69.68
2018-02-06T00:28:56.484Z,69.68
2018-02-06T00:30:03.207Z,69.63
2018-02-06T00:31:10.005Z,69.61
2018-02-06T00:32:16.708Z,69.64
2018-02-06T00:33:23.428Z,69.61
2018-02-06T00:34:30.137Z,69.59
2018-02-06T00:35:36.903Z,69.60
2018-02-06T00:36:43.621Z,69.62
2018-02-06T00:37:50.328Z,69.61
2018-02-06T00:38:57.107Z,69.59
2018-02-06T00:40:03.821Z,69.53
2018-02-06T00:41:10.580Z,69.55
2018-02-06T00:42:17.321Z,69.54
2018-02-06T00:43:24.044Z,69.55
2018-02-06T00:44:30.892Z,69.58
2018-02-06T00:45:37.615Z,69.57
2018-02-06T00:46:44.380Z,69.52
2018-02-06T00:47:51.132Z,69.53
2018-02-06T00:48:57.860Z,69.55
2018-02-06T00:50:04.656Z,69.56
2018-02-06T00:51:11.377Z,69.55
2018-02-06T00:52:18.118Z,69.58
2018-02-06T00:53:25.120Z,69.53
2018-02-06T00:54:31.829Z,69.54
2018-02-06T00:55:38.563Z,69.59
2018-02-06T00:56:45.278Z,69.62
2018-02-06T00:57:52.001Z,69.56
2018-02-06T00:58:58.750Z,69.54
2018-02-06T01:00:05.624Z,69.53
2018-02-06T01:01:12.452Z,69.55
2018-02-06T01:02:19.160Z,69.48
2018-02-06T01:03:25.991Z,69.47
2018-02-06T01:04:32.693Z,69.50
2018-02-06T01:05:39.413Z,69.44
2018-02-06T01:06:46.120Z,69.45
2018-02-06T01:07:52.820Z,69.46
2018-02-06T01:08:59.552Z,69.54
2018-02-06T01:10:06.248Z,69.48
2018-02-06T01:11:13.061Z,69.52
2018-02-06T01:12:19.788Z,69.47
2018-02-06T01:13:26.496Z,69.48
2018-02-06T01:14:33.224Z,69.47
2018-02-06T01:15:40.005Z,69.51
2018-02-06T01:16:46.712Z,69.54
2018-02-06T01:17:53.512Z,69.51
2018-02-06T01:19:00.217Z,69.51
2018-02-06T01:20:06.926Z,69.45
2018-02-06T01:21:13.656Z,69.50
2018-02-06T01:22:20.364Z,69.51
2018-02-06T01:23:27.049Z,69.55
2018-02-06T01:24:33.750Z,69.49
2018-02-06T01:25:40.568Z,69.52
2018-02-06T01:26:47.293Z,69.51
2018-02-06T01:27:54.108Z,69.48
2018-02-06T01:29:00.799Z,69.49
2018-02-06T01:30:07.529Z,69.51
2018-02-06T01:31:14.359Z,69.51
2018-02-06T01:32:21.092Z,69.51
2018-02-06T01:33:27.808Z,69.49
2018-02-06T01:34:34.545Z,69.49
2018-02-06T01:35:41.271Z,69.49
2018-02-06T01:36:47.994Z,69.44
2018-02-06T01:37:54.813Z,69.40
2018-02-06T01:39:01.578Z,69.43
2018-02-06T01:40:08.656Z,69.36
2018-02-06T01:41:15.357Z,69.37
2018-02-06T01:42:22.100Z,69.40
2018-02-06T01:43:28.801Z,69.42
2018-02-06T01:44:35.505Z,69.40
2018-02-06T01:45:42.224Z,69.46
2018-02-06T01:46:49.007Z,69.41
2018-02-06T01:47:55.720Z,69.40
2018-02-06T01:49:02.404Z,69.43
2018-02-06T01:50:09.080Z,69.41
2018-02-06T01:51:15.765Z,69.43
2018-02-06T01:52:22.629Z,69.46
2018-02-06T01:53:29.492Z,69.41
2018-02-06T01:54:36.163Z,69.44
2018-02-06T01:55:42.863Z,69.43
2018-02-06T01:56:49.563Z,69.43
2018-02-06T01:57:56.274Z,69.39
2018-02-06T01:59:02.968Z,69.40
2018-02-06T02:00:09.695Z,69.36
2018-02-06T02:01:16.394Z,69.41
2018-02-06T02:02:23.144Z,69.37
2018-02-06T02:03:29.914Z,69.43
2018-02-06T02:04:36.600Z,69.41
2018-02-06T02:05:43.376Z,69.46
2018-02-06T02:06:50.135Z,69.51
2018-02-06T02:07:56.846Z,69.51
2018-02-06T02:09:03.544Z,69.48
2018-02-06T02:10:10.328Z,69.52
2018-02-06T02:11:17.007Z,69.48
2018-02-06T02:12:24.222Z,69.48
2018-02-06T02:13:30.932Z,69.45
2018-02-06T02:14:37.744Z,69.51
2018-02-06T02:15:44.403Z,69.51
2018-02-06T02:16:51.103Z,69.47
2018-02-06T02:17:57.813Z,69.47
2018-02-06T02:19:04.506Z,69.47
2018-02-06T02:20:11.295Z,69.45
2018-02-06T02:21:17.981Z,69.42
2018-02-06T02:22:24.792Z,69.41
2018-02-06T02:23:31.507Z,69.40
2018-02-06T02:24:38.224Z,69.38
2018-02-06T02:25:44.935Z,69.37
2018-02-06T02:26:51.729Z,69.38
2018-02-06T02:27:58.536Z,69.37
2018-02-06T02:29:05.219Z,69.34
2018-02-06T02:30:11.926Z,69.42
2018-02-06T02:31:18.643Z,69.42
2018-02-06T02:32:25.352Z,69.36
2018-02-06T02:33:32.053Z,69.39
2018-02-06T02:34:38.868Z,69.35
2018-02-06T02:35:45.558Z,69.35
2018-02-06T02:36:52.265Z,69.42
2018-02-06T02:37:59.008Z,69.40
2018-02-06T02:39:05.775Z,69.38
2018-02-06T02:40:12.471Z,69.36
2018-02-06T02:41:19.177Z,69.37
2018-02-06T04:38:56.554Z,70.92
2018-02-06T04:40:03.287Z,70.95
2018-02-06T04:41:10.080Z,71.00
2018-02-06T04:42:16.779Z,71.00
2018-02-06T04:43:23.479Z,71.07
2018-02-06T04:44:30.176Z,71.11
2018-02-06T04:45:36.934Z,71.15
2018-02-06T04:46:43.632Z,71.17
2018-02-06T04:47:50.356Z,71.23
2018-02-06T04:48:57.123Z,71.21
2018-02-06T04:50:03.854Z,71.25
2018-02-06T04:51:10.575Z,71.27
2018-02-06T04:52:17.324Z,71.27
2018-02-06T04:53:24.227Z,71.30
2018-02-06T04:54:30.943Z,71.36
2018-02-06T04:55:37.647Z,71.41
2018-02-06T04:56:44.379Z,71.43
2018-02-06T04:57:51.103Z,71.46
2018-02-06T04:58:57.812Z,71.50
2018-02-06T05:00:04.483Z,71.50
2018-02-06T05:01:11.201Z,71.53
2018-02-06T05:02:17.965Z,71.54
2018-02-06T05:03:24.700Z,71.55
2018-02-06T05:04:31.415Z,71.52
2018-02-06T05:05:38.117Z,71.62
2018-02-06T05:06:44.826Z,71.66
2018-02-06T05:07:51.524Z,71.67
2018-02-06T05:08:58.205Z,71.70
2018-02-06T05:10:04.887Z,71.74
2018-02-06T05:11:11.747Z,71.78
2018-02-06T05:12:18.472Z,71.84
2018-02-06T05:13:25.195Z,71.88
2018-02-06T05:14:31.921Z,71.93
2018-02-06T05:15:38.652Z,71.93
2018-02-06T05:16:45.434Z,72.01
2018-02-06T05:17:52.128Z,72.03
2018-02-06T05:18:58.916Z,72.05
2018-02-06T05:20:05.643Z,72.05
2018-02-06T05:21:12.436Z,72.12
2018-02-06T05:22:19.187Z,72.13
2018-02-06T05:23:25.929Z,72.17
2018-02-06T05:24:32.639Z,72.21
2018-02-06T05:25:39.347Z,72.25
2018-02-06T05:26:46.040Z,72.28
2018-02-06T05:27:52.800Z,72.28
2018-02-06T05:28:59.504Z,72.31
2018-02-06T05:30:06.279Z,72.37
2018-02-06T05:31:12.967Z,72.44
2018-02-06T05:32:19.672Z,72.44
2018-02-06T05:33:26.398Z,72.48
2018-02-06T05:34:33.113Z,72.51
2018-02-06T05:35:39.829Z,72.55
2018-02-06T05:36:46.524Z,72.58
2018-02-06T05:37:53.231Z,72.59
2018-02-06T05:38:59.941Z,72.65
2018-02-06T05:40:06.748Z,72.70
2018-02-06T05:41:13.445Z,72.71
2018-02-06T05:42:20.167Z,72.71
2018-02-06T05:43:26.878Z,72.72
2018-02-06T05:44:33.595Z,72.74
2018-02-06T05:45:40.329Z,72.79
2018-02-06T05:46:47.026Z,72.82
2018-02-06T05:47:53.719Z,72.82
2018-02-06T05:49:00.547Z,72.85
2018-02-06T05:50:07.258Z,72.86
2018-02-06T05:51:13.995Z,72.91
2018-02-06T05:52:20.696Z,72.94
2018-02-06T05:53:27.469Z,72.99
2018-02-06T05:54:34.175Z,73.03
2018-02-06T05:55:40.936Z,73.06
2018-02-06T05:56:47.630Z,73.05
2018-02-06T05:57:54.327Z,73.08
2018-02-06T05:59:01.048Z,73.05
2018-02-06T06:00:07.768Z,73.11
2018-02-06T06:01:14.506Z,73.16
2018-02-06T06:02:21.205Z,73.19
2018-02-06T06:03:28.279Z,73.17
2018-02-06T06:04:35.174Z,73.19
2018-02-06T06:05:41.884Z,73.23
2018-02-06T06:06:48.652Z,73.24
2018-02-06T06:07:55.404Z,73.26
2018-02-06T06:09:02.127Z,73.32
2018-02-06T06:10:08.963Z,73.36
2018-02-06T06:11:15.703Z,73.41
2018-02-06T06:12:22.454Z,73.46
2018-02-06T06:13:29.232Z,73.46
2018-02-06T06:14:36.076Z,73.48
2018-02-06T06:15:42.812Z,73.51
2018-02-06T06:16:49.647Z,73.53
2018-02-06T06:17:56.355Z,73.55
2018-02-06T06:19:03.480Z,73.58
2018-02-06T06:20:10.332Z,73.55
2018-02-06T06:21:17.050Z,73.58
2018-02-06T06:22:23.790Z,73.60
2018-02-06T06:23:30.556Z,73.62
2018-02-06T06:24:37.272Z,73.66
2018-02-06T06:25:44.120Z,73.67
2018-02-06T06:26:50.863Z,73.69
2018-02-06T06:27:57.594Z,73.70
2018-02-06T06:29:04.340Z,73.72
2018-02-06T06:30:11.045Z,73.72
2018-02-06T06:31:17.919Z,73.77
2018-02-06T06:32:24.688Z,73.81
2018-02-06T06:33:31.441Z,73.85
2018-02-06T06:34:38.179Z,73.83
2018-02-06T06:35:45.009Z,73.81
2018-02-06T06:36:51.747Z,73.83
2018-02-06T06:37:58.544Z,73.88
2018-02-06T06:39:05.278Z,73.88
2018-02-06T06:40:12.348Z,73.95
2018-02-06T06:41:19.104Z,73.96
2018-02-06T06:42:25.912Z,73.99
2018-02-06T06:43:32.631Z,74.01
2018-02-06T06:44:39.357Z,74.02
2018-02-06T06:45:46.115Z,74.02
2018-02-06T06:46:52.835Z,74.04
2018-02-06T06:47:59.672Z,74.05
2018-02-06T06:49:06.390Z,74.07
2018-02-06T06:50:13.136Z,74.08
2018-02-06T06:51:19.867Z,74.13
2018-02-06T06:52:26.604Z,74.14
2018-02-06T06:53:33.443Z,74.16
2018-02-06T06:54:40.268Z,74.17
2018-02-06T06:55:47.036Z,74.19
2018-02-06T06:56:53.782Z,74.22
2018-02-06T06:58:00.660Z,74.23
2018-02-06T06:59:07.457Z,74.28
2018-02-06T07:00:14.188Z,74.31
2018-02-06T07:01:21.296Z,74.30
2018-02-06T07:02:28.081Z,74.29
2018-02-06T07:03:34.848Z,74.33
2018-02-06T07:04:41.599Z,74.34
2018-02-06T07:05:48.352Z,74.35
2018-02-06T07:06:55.122Z,74.36
2018-02-06T07:08:01.964Z,74.39
2018-02-06T07:09:08.725Z,74.39
2018-02-06T07:10:15.477Z,74.39
2018-02-06T07:11:22.454Z,74.39
2018-02-06T07:12:29.198Z,74.44
2018-02-06T07:13:35.966Z,74.45
2018-02-06T07:14:42.677Z,74.44
2018-02-06T07:15:49.532Z,74.47
2018-02-06T07:16:56.275Z,74.47
2018-02-06T07:18:03.012Z,74.48
2018-02-06T07:19:09.757Z,74.52
2018-02-06T07:20:16.501Z,74.53
2018-02-06T07:21:23.365Z,74.54
2018-02-06T07:22:30.067Z,74.56
2018-02-06T07:23:36.819Z,74.60
2018-02-06T07:24:43.568Z,74.62
2018-02-06T07:25:50.431Z,74.68
2018-02-06T07:27:00.064Z,74.69
2018-02-06T07:28:06.471Z,74.70
2018-02-06T07:29:12.492Z,74.72
2018-02-06T07:30:18.228Z,74.81
2018-02-06T07:31:25.013Z,74.88
2018-02-06T07:32:31.895Z,74.89
2018-02-06T07:33:38.742Z,74.87
2018-02-06T07:34:46.107Z,74.86
2018-02-06T07:35:52.617Z,74.87
2018-02-06T07:37:04.342Z,74.95
2018-02-06T07:38:06.211Z,74.97
2018-02-06T07:39:13.176Z,75.01
2018-02-06T07:40:19.716Z,75.01
2018-02-06T07:41:26.586Z,75.03
2018-02-06T07:42:33.680Z,75.07
2018-02-06T07:43:40.432Z,75.15
2018-02-06T07:44:47.371Z,75.14
2018-02-06T07:45:54.238Z,75.15
2018-02-06T07:47:00.948Z,75.15
2018-02-06T07:48:07.718Z,75.16
2018-02-06T07:49:14.462Z,75.13
2018-02-06T07:50:21.168Z,75.17
2018-02-06T07:51:28.039Z,75.23
2018-02-06T07:52:34.800Z,75.23
2018-02-06T07:53:41.663Z,75.22
2018-02-06T07:54:48.586Z,75.26
2018-02-06T07:55:55.340Z,75.26
2018-02-06T07:57:02.093Z,75.28
2018-02-06T07:58:08.814Z,75.27
2018-02-06T07:59:15.664Z,75.30
2018-02-06T08:00:22.376Z,75.33
2018-02-06T08:01:29.125Z,75.31
2018-02-06T08:02:35.848Z,75.33
2018-02-06T08:03:42.622Z,75.36
2018-02-06T08:04:49.467Z,75.38
2018-02-06T08:05:56.218Z,75.36
2018-02-06T08:07:03.075Z,75.35
2018-02-06T08:08:09.756Z,75.35
2018-02-06T08:09:16.594Z,75.38
2018-02-06T08:10:23.352Z,75.38
2018-02-06T08:11:30.080Z,75.39
2018-02-06T08:12:36.847Z,75.40
2018-02-06T08:12:59.426Z,75.45
2018-02-06T08:14:02.292Z,75.46
2018-02-06T08:15:09.146Z,75.50
2018-02-06T08:16:16.008Z,75.57
2018-02-06T08:17:22.738Z,75.56
2018-02-06T08:18:29.455Z,75.62
2018-02-06T08:19:36.220Z,75.64
2018-02-06T08:20:42.980Z,75.61
2018-02-06T08:21:49.708Z,75.63
2018-02-06T08:22:56.548Z,75.65
2018-02-06T08:24:03.355Z,75.67
2018-02-06T08:25:10.174Z,75.62
2018-02-06T08:26:17.024Z,75.64
2018-02-06T08:27:23.768Z,75.70
2018-02-06T08:28:30.500Z,75.70
2018-02-06T08:29:37.264Z,75.73
2018-02-06T08:30:44.020Z,75.75
2018-02-06T08:31:50.812Z,75.73
2018-02-06T08:32:57.585Z,75.76
2018-02-06T08:34:04.313Z,75.76
2018-02-06T08:35:11.087Z,75.82
2018-02-06T08:36:17.932Z,75.83
2018-02-06T08:37:24.639Z,75.85
2018-02-06T08:38:31.367Z,75.83
2018-02-06T08:39:38.101Z,75.83
2018-02-06T08:40:44.848Z,75.85
2018-02-06T08:41:51.586Z,75.86
2018-02-06T08:42:58.394Z,75.89
2018-02-06T08:44:05.549Z,75.92
2018-02-06T08:45:12.315Z,76.01
2018-02-06T08:46:19.074Z,75.97
2018-02-06T08:47:25.804Z,75.94
2018-02-06T08:48:32.648Z,76.04
2018-02-06T08:49:39.382Z,76.08
2018-02-06T08:50:46.157Z,76.15
2018-02-06T08:51:52.903Z,76.15
2018-02-06T08:52:59.756Z,76.22
2018-02-06T08:54:06.634Z,76.22
2018-02-06T08:55:13.412Z,76.29
2018-02-06T08:56:20.233Z,76.29
2018-02-06T08:57:26.980Z,76.29
2018-02-06T08:58:33.716Z,76.31
2018-02-06T08:59:40.472Z,76.32
2018-02-06T09:00:47.352Z,76.34
2018-02-06T09:01:54.171Z,76.39
2018-02-06T09:03:00.924Z,76.40
2018-02-06T09:04:07.793Z,76.39
2018-02-06T09:05:14.498Z,76.37
2018-02-06T09:06:21.249Z,76.38
2018-02-06T09:07:27.972Z,76.42
2018-02-06T09:08:34.716Z,76.46
2018-02-06T09:09:41.677Z,76.49
2018-02-06T09:10:48.389Z,76.49
2018-02-06T09:11:55.397Z,76.44
2018-02-06T09:13:01.897Z,76.48
2018-02-06T09:14:08.667Z,76.52
2018-02-06T09:15:15.369Z,76.50
2018-02-06T09:16:22.088Z,76.52
2018-02-06T09:17:28.863Z,76.53
2018-02-06T09:18:35.594Z,76.60
2018-02-06T09:19:42.319Z,76.61
2018-02-06T09:20:49.115Z,76.66
2018-02-06T09:21:55.901Z,76.68
2018-02-06T09:23:02.683Z,76.70
2018-02-06T09:24:09.399Z,76.71
2018-02-06T09:25:16.127Z,76.68
2018-02-06T09:26:22.928Z,76.71
2018-02-06T09:27:29.715Z,76.71
2018-02-06T09:28:36.534Z,76.74
2018-02-06T09:29:43.432Z,76.70
2018-02-06T09:30:50.200Z,76.70
2018-02-06T09:31:56.998Z,76.71
2018-02-06T09:33:03.837Z,76.71
2018-02-06T09:34:10.680Z,76.71
2018-02-06T09:35:17.487Z,76.73
2018-02-06T09:36:24.288Z,76.73
2018-02-06T09:37:31.083Z,76.73
2018-02-06T09:38:37.811Z,76.80
2018-02-06T09:39:44.541Z,76.81
2018-02-06T09:40:51.384Z,76.84
2018-02-06T09:41:58.092Z,76.82
2018-02-06T09:43:05.133Z,76.79
2018-02-06T09:44:11.859Z,76.78
2018-02-06T09:45:18.600Z,76.77
2018-02-06T09:46:25.312Z,76.78
2018-02-06T09:47:32.057Z,76.76
2018-02-06T09:48:38.795Z,76.75
2018-02-06T09:49:45.608Z,76.72
2018-02-06T09:50:52.328Z,76.72
2018-02-06T09:51:59.155Z,76.75
2018-02-06T09:53:05.979Z,76.76
2018-02-06T09:54:12.791Z,76.75
2018-02-06T09:55:19.583Z,76.74
2018-02-06T09:56:26.317Z,76.77
2018-02-06T09:57:33.312Z,76.77
2018-02-06T09:58:40.065Z,76.78
2018-02-06T09:59:46.811Z,76.80
2018-02-06T10:00:53.632Z,76.79
2018-02-06T10:02:00.392Z,76.78
2018-02-06T10:03:07.140Z,76.85
2018-02-06T10:04:13.913Z,76.87
2018-02-06T10:05:20.717Z,76.85
2018-02-06T10:06:27.434Z,76.82
2018-02-06T10:07:34.227Z,76.80
2018-02-06T10:08:40.960Z,76.83
2018-02-06T10:09:47.664Z,76.84
2018-02-06T10:10:54.487Z,76.85
2018-02-06T10:12:01.199Z,76.85
2018-02-06T10:13:07.932Z,76.89
2018-02-06T10:14:14.650Z,76.91
2018-02-06T10:15:21.372Z,76.95
2018-02-06T10:16:28.115Z,76.94
2018-02-06T10:17:34.925Z,76.93
2018-02-06T10:18:41.953Z,76.96
2018-02-06T10:19:48.750Z,77.00
2018-02-06T10:20:55.451Z,77.01
2018-02-06T10:22:02.196Z,77.07
2018-02-06T10:23:08.919Z,77.12
2018-02-06T10:24:15.623Z,77.17
2018-02-06T10:25:22.615Z,77.18
2018-02-06T10:26:29.328Z,77.18
2018-02-06T10:27:36.031Z,77.15
2018-02-06T10:28:42.737Z,77.17
2018-02-06T10:29:49.436Z,77.18
2018-02-06T10:30:56.195Z,77.17
2018-02-06T10:32:02.936Z,77.17
2018-02-06T10:33:09.633Z,77.22
2018-02-06T10:34:16.437Z,77.23
2018-02-06T10:35:23.144Z,77.22
2018-02-06T10:36:29.851Z,77.24
2018-02-06T10:37:36.555Z,77.26
2018-02-06T10:38:43.347Z,77.27
2018-02-06T10:39:50.303Z,77.33
2018-02-06T10:40:57.021Z,77.41
2018-02-06T10:42:03.835Z,77.45
2018-02-06T10:43:10.562Z,77.42
2018-02-06T10:44:17.336Z,77.38
2018-02-06T10:45:24.065Z,77.39
2018-02-06T10:46:30.807Z,77.42
2018-02-06T10:47:37.633Z,77.46
2018-02-06T10:48:44.323Z,77.49
2018-02-06T10:49:51.021Z,77.49
2018-02-06T10:50:57.774Z,77.49
2018-02-06T10:52:04.516Z,77.51
2018-02-06T10:53:11.358Z,77.57
2018-02-06T10:54:18.369Z,77.60
2018-02-06T10:55:25.268Z,77.61
2018-02-06T10:56:32.019Z,77.59
2018-02-06T10:57:38.768Z,77.62
2018-02-06T10:58:45.483Z,77.65
2018-02-06T10:59:52.208Z,77.68
2018-02-06T11:00:59.011Z,77.75
2018-02-06T11:02:05.755Z,77.76
2018-02-06T11:03:12.535Z,77.78
2018-02-06T11:04:19.287Z,77.72
2018-02-06T11:05:26.151Z,77.71
2018-02-06T11:06:32.908Z,77.72
2018-02-06T11:07:39.640Z,77.70
2018-02-06T11:08:46.410Z,77.73
2018-02-06T11:09:53.305Z,77.78
2018-02-06T11:11:00.045Z,77.84
2018-02-06T11:12:06.810Z,77.84
2018-02-06T11:13:13.561Z,77.90
2018-02-06T11:14:20.371Z,77.98
2018-02-06T11:15:27.127Z,77.99
2018-02-06T11:16:33.867Z,77.97
2018-02-06T11:17:40.615Z,77.98
2018-02-06T11:18:47.361Z,77.96
2018-02-06T11:19:54.163Z,77.96
2018-02-06T11:21:00.887Z,77.92
2018-02-06T11:22:07.631Z,77.88
2018-02-06T11:23:14.375Z,77.86
2018-02-06T11:24:21.267Z,77.86
2018-02-06T11:25:27.996Z,77.86
2018-02-06T11:26:34.749Z,77.87
2018-02-06T11:27:41.481Z,77.85
2018-02-06T11:28:48.372Z,77.88
2018-02-06T11:29:55.107Z,77.91
2018-02-06T11:31:01.839Z,77.92
2018-02-06T11:32:08.585Z,77.94
2018-02-06T11:33:15.465Z,77.92
2018-02-06T11:34:22.252Z,77.93
2018-02-06T11:35:28.996Z,77.97
2018-02-06T11:36:35.705Z,77.92
2018-02-06T11:37:42.543Z,77.91
2018-02-06T11:38:49.279Z,77.94
2018-02-06T11:39:56.125Z,78.01
2018-02-06T11:41:02.997Z,77.94
2018-02-06T11:42:09.774Z,77.92
2018-02-06T11:43:16.512Z,77.92
2018-02-06T11:44:23.261Z,77.97
2018-02-06T11:45:30.119Z,78.01
2018-02-06T11:46:36.855Z,78.04
2018-02-06T11:47:43.632Z,78.08
2018-02-06T11:48:50.367Z,78.16
2018-02-06T11:49:57.187Z,78.19
2018-02-06T11:51:03.955Z,78.15
2018-02-06T11:52:10.700Z,78.10
2018-02-06T11:53:17.460Z,78.12
2018-02-06T11:54:24.371Z,78.16
2018-02-06T11:55:31.144Z,78.14
2018-02-06T11:56:37.872Z,78.11
2018-02-06T11:57:44.708Z,78.13
2018-02-06T11:58:51.475Z,78.15
2018-02-06T11:59:58.359Z,78.16
2018-02-06T12:01:05.167Z,78.24
2018-02-06T12:02:12.290Z,78.23
2018-02-06T12:03:19.012Z,78.23
2018-02-06T12:04:25.763Z,78.28
2018-02-06T12:05:32.487Z,78.24
2018-02-06T12:06:39.187Z,78.22
2018-02-06T12:07:45.895Z,78.24
2018-02-06T12:08:52.701Z,78.24
2018-02-06T12:09:59.465Z,78.24
2018-02-06T12:11:06.189Z,78.28
2018-02-06T12:12:12.950Z,78.35
2018-02-06T12:13:19.811Z,78.39
2018-02-06T12:14:26.512Z,78.40
2018-02-06T12:15:33.251Z,78.41
2018-02-06T12:16:39.982Z,78.42
2018-02-06T12:17:46.701Z,78.39
2018-02-06T12:18:53.411Z,78.35
2018-02-06T12:20:00.202Z,78.35
2018-02-06T12:21:06.902Z,78.34
2018-02-06T12:22:13.822Z,78.36
2018-02-06T12:23:20.672Z,78.35
2018-02-06T12:24:27.402Z,78.40
2018-02-06T12:25:34.198Z,78.41
2018-02-06T12:26:40.952Z,78.37
2018-02-06T12:27:47.795Z,78.34
2018-02-06T12:28:54.555Z,78.32
2018-02-06T12:30:01.567Z,78.34
2018-02-06T12:31:08.037Z,78.36
2018-02-06T12:32:15.008Z,78.37
2018-02-06T12:33:21.827Z,78.39
2018-02-06T12:34:28.719Z,78.39
2018-02-06T12:35:35.528Z,78.38
2018-02-06T12:36:42.291Z,78.39
2018-02-06T12:37:49.003Z,78.39
2018-02-06T12:38:55.723Z,78.38
2018-02-06T12:40:02.512Z,78.35
2018-02-06T12:41:09.246Z,78.36
2018-02-06T12:42:16.051Z,78.34
2018-02-06T12:43:22.775Z,78.37
2018-02-06T12:44:29.491Z,78.40
2018-02-06T12:45:36.295Z,78.41
2018-02-06T12:46:43.039Z,78.46
2018-02-06T12:47:49.871Z,78.47
2018-02-06T12:48:56.571Z,78.50
2018-02-06T12:50:03.295Z,78.56
2018-02-06T12:51:10.099Z,78.56
2018-02-06T12:52:16.879Z,78.56
2018-02-06T12:53:23.667Z,78.52
2018-02-06T12:54:30.426Z,78.53
2018-02-06T12:55:37.217Z,78.52
2018-02-06T12:56:43.944Z,78.51
2018-02-06T12:57:50.665Z,78.58
2018-02-06T12:58:57.420Z,78.60
2018-02-06T13:00:04.151Z,78.55
2018-02-06T13:01:10.836Z,78.59
2018-02-06T13:02:17.635Z,78.65
2018-02-06T13:03:24.341Z,78.66
2018-02-06T13:04:31.105Z,78.71
2018-02-06T13:05:37.838Z,78.71
2018-02-06T13:06:44.567Z,78.68
2018-02-06T13:07:51.380Z,78.70
2018-02-06T13:08:58.168Z,78.70
2018-02-06T13:10:04.932Z,78.72
2018-02-06T13:11:11.647Z,78.68
2018-02-06T13:12:18.460Z,78.70
2018-02-06T13:13:25.236Z,78.70
2018-02-06T13:14:32.016Z,78.68
2018-02-06T13:15:38.746Z,78.65
2018-02-06T13:16:45.554Z,78.65
2018-02-06T13:17:52.386Z,78.63
2018-02-06T13:18:59.157Z,78.63
2018-02-06T13:20:05.978Z,78.55
2018-02-06T13:21:12.812Z,78.50
2018-02-06T13:22:19.563Z,78.55
2018-02-06T13:23:26.283Z,78.61
2018-02-06T13:24:33.095Z,78.66
2018-02-06T13:25:39.827Z,78.65
2018-02-06T13:26:46.559Z,78.55
2018-02-06T13:27:53.287Z,78.63
2018-02-06T13:29:00.103Z,78.66
2018-02-06T13:30:07.106Z,78.64
2018-02-06T13:31:13.946Z,78.60
2018-02-06T13:32:20.703Z,78.57
2018-02-06T13:33:27.471Z,78.64
2018-02-06T13:34:34.335Z,78.63
2018-02-06T13:35:41.164Z,78.67
2018-02-06T13:36:47.848Z,78.65
2018-02-06T13:37:54.599Z,78.62
2018-02-06T13:39:01.318Z,78.62
2018-02-06T13:40:08.246Z,78.68
2018-02-06T13:41:15.013Z,78.69
2018-02-06T13:42:21.735Z,78.67
2018-02-06T13:43:28.556Z,78.67
2018-02-06T13:44:35.277Z,78.63
2018-02-06T13:45:42.039Z,78.67
2018-02-06T13:46:48.807Z,78.68
2018-02-06T13:47:55.631Z,78.62
2018-02-06T13:49:02.339Z,78.59
2018-02-06T13:50:09.079Z,78.61
2018-02-06T13:51:15.819Z,78.65
2018-02-06T13:52:22.763Z,78.58
2018-02-06T13:53:29.546Z,78.62
2018-02-06T13:54:36.343Z,78.63
2018-02-06T13:55:43.160Z,78.68
2018-02-06T13:56:49.953Z,78.73
2018-02-06T13:57:56.711Z,78.76
2018-02-06T13:59:03.455Z,78.73
2018-02-06T14:00:10.322Z,78.74
2018-02-06T14:01:17.167Z,78.76
2018-02-06T14:02:23.907Z,78.70
2018-02-06T14:03:30.755Z,78.70
2018-02-06T14:04:37.456Z,78.69
2018-02-06T14:05:44.187Z,78.69
2018-02-06T14:06:51.009Z,78.65
2018-02-06T14:07:57.852Z,78.62
2018-02-06T14:09:04.568Z,78.66
2018-02-06T14:10:11.288Z,78.64
2018-02-06T14:11:18.021Z,78.67
2018-02-06T14:12:24.821Z,78.72
2018-02-06T14:13:31.564Z,78.67
2018-02-06T14:14:38.312Z,78.67
2018-02-06T14:15:45.027Z,78.69
2018-02-06T14:16:52.200Z,78.67
2018-02-06T14:17:59.700Z,78.66
2018-02-06T14:19:05.625Z,78.62
2018-02-06T14:20:12.422Z,78.66
2018-02-06T14:21:19.191Z,78.63
2018-02-06T14:22:25.966Z,78.64
2018-02-06T14:23:32.692Z,78.62
2018-02-06T14:24:39.516Z,78.64
2018-02-06T14:25:46.227Z,78.61
2018-02-06T14:26:52.963Z,78.62
2018-02-06T14:27:59.708Z,78.66
2018-02-06T14:29:06.432Z,78.67
2018-02-06T14:30:13.260Z,78.66
2018-02-06T14:31:19.995Z,78.72
2018-02-06T14:32:26.719Z,78.72
2018-02-06T14:33:33.469Z,78.68
2018-02-06T14:34:40.356Z,78.69
2018-02-06T14:35:47.044Z,78.69
2018-02-06T14:36:53.739Z,78.70
2018-02-06T14:38:00.491Z,78.70
2018-02-06T14:39:07.284Z,78.67
2018-02-06T14:40:14.076Z,78.66
2018-02-06T14:41:20.800Z,78.66
2018-02-06T14:42:27.507Z,78.66
2018-02-06T14:43:34.304Z,78.64
2018-02-06T14:44:41.036Z,78.66
2018-02-06T14:45:47.800Z,78.58
2018-02-06T14:46:54.571Z,78.51
2018-02-06T14:48:01.280Z,78.49
2018-02-06T14:49:08.399Z,78.49
2018-02-06T14:50:15.131Z,78.52
2018-02-06T14:51:21.876Z,78.51
2018-02-06T14:52:28.679Z,78.53
2018-02-06T14:53:35.611Z,78.53
2018-02-06T14:54:42.331Z,78.53
2018-02-06T14:55:49.109Z,78.54
2018-02-06T14:56:55.803Z,78.52
2018-02-06T14:58:02.516Z,78.53
2018-02-06T14:59:09.435Z,78.55
2018-02-06T15:00:16.208Z,78.55
2018-02-06T15:01:22.939Z,78.54
2018-02-06T15:02:29.821Z,78.50
2018-02-06T15:03:36.705Z,78.51
2018-02-06T15:04:43.480Z,78.50
2018-02-06T15:05:50.235Z,78.51
2018-02-06T15:06:57.088Z,78.50
2018-02-06T15:08:03.813Z,78.49
2018-02-06T15:09:10.559Z,78.49
2018-02-06T15:10:17.306Z,78.48
2018-02-06T15:11:24.171Z,78.48
2018-02-06T15:12:30.941Z,78.49
2018-02-06T15:13:37.700Z,78.53
2018-02-06T15:14:44.475Z,78.48
2018-02-06T15:15:51.255Z,78.49
2018-02-06T15:16:57.989Z,78.47
2018-02-06T15:18:04.744Z,78.50
2018-02-06T15:19:11.519Z,78.48
2018-02-06T15:20:18.343Z,78.54
2018-02-06T15:21:25.104Z,78.51
2018-02-06T15:22:31.831Z,78.51
2018-02-06T15:23:38.676Z,78.47
2018-02-06T15:24:45.510Z,78.46
2018-02-06T15:25:52.256Z,78.41
2018-02-06T15:26:59.019Z,78.42
2018-02-06T15:28:05.888Z,78.41
2018-02-06T15:29:12.676Z,78.45
2018-02-06T15:30:19.432Z,78.47
2018-02-06T15:31:26.259Z,78.49
2018-02-06T15:32:33.012Z,78.46
2018-02-06T15:33:39.856Z,78.41
2018-02-06T15:34:46.638Z,78.38
2018-02-06T15:35:53.415Z,78.38
2018-02-06T15:37:00.169Z,78.42
2018-02-06T15:38:06.920Z,78.39
2018-02-06T15:39:13.804Z,78.37
2018-02-06T15:40:20.824Z,78.39
2018-02-06T15:41:27.640Z,78.38
2018-02-06T15:42:34.378Z,78.30
2018-02-06T15:43:41.184Z,78.32
2018-02-06T15:44:47.935Z,78.30
2018-02-06T15:45:54.714Z,78.31
2018-02-06T15:47:01.584Z,78.29
2018-02-06T15:48:08.327Z,78.31
2018-02-06T15:49:15.172Z,78.34
2018-02-06T15:50:21.944Z,78.35
2018-02-06T15:51:28.672Z,78.33
2018-02-06T15:52:35.432Z,78.37
2018-02-06T15:53:42.265Z,78.35
2018-02-06T15:54:49.169Z,78.35
2018-02-06T15:55:56.028Z,78.34
2018-02-06T15:57:03.011Z,78.33
2018-02-06T15:58:09.796Z,78.30
2018-02-06T15:59:16.533Z,78.32
2018-02-06T16:00:23.363Z,78.29
2018-02-06T16:01:30.291Z,78.28
2018-02-06T16:02:37.086Z,78.29
2018-02-06T16:03:43.980Z,78.25
2018-02-06T16:04:50.707Z,78.27
2018-02-06T16:05:57.539Z,78.25
2018-02-06T16:07:04.295Z,78.24
2018-02-06T16:08:11.108Z,78.21
2018-02-06T16:09:17.830Z,78.16
2018-02-06T16:10:24.591Z,78.19
2018-02-06T16:11:31.337Z,78.18
2018-02-06T16:12:38.165Z,78.10
2018-02-06T16:13:44.909Z,78.13
2018-02-06T16:14:51.683Z,78.12